Time;durP1;ratioP1;P1;durP2;ratioP2;P2;SDS_P1;SDS_P2;PMS_P1;PMS_P2;Temp;Humidity;BMP_temperature;BMP_pressure;BME280_temperature;BME280_humidity;BME280_pressure;Samples;Min_cycle;Max_cycle;Signal;HPM_P1;HPM_P2
2023/11/28 00:01:40;;;;;;;2.67;2.43;;;1.10;99.90;;;;;;5040261;28;20529;-68
2023/11/28 00:04:10;;;;;;;2.60;2.40;;;1.00;99.90;;;;;;5041706;28;20474;-68
2023/11/28 00:06:38;;;;;;;3.13;2.93;;;1.00;99.90;;;;;;5037493;28;20589;-68
2023/11/28 00:09:06;;;;;;;2.30;2.10;;;1.00;99.90;;;;;;5028777;28;20502;-68
2023/11/28 00:11:34;;;;;;;2.60;2.10;;;1.00;99.90;;;;;;5035953;28;20527;-68
2023/11/28 00:14:02;;;;;;;3.40;3.10;;;1.10;99.90;;;;;;5039308;28;20505;-68
2023/11/28 00:16:30;;;;;;;3.20;2.77;;;1.10;99.90;;;;;;5040653;28;20475;-67
2023/11/28 00:18:58;;;;;;;3.10;2.80;;;1.10;99.90;;;;;;5037323;28;20523;-68
2023/11/28 00:21:28;;;;;;;4.83;4.03;;;1.00;99.90;;;;;;5032037;28;20486;-67
2023/11/28 00:23:56;;;;;;;4.30;3.60;;;1.00;99.90;;;;;;5027135;28;21006;-67
2023/11/28 00:26:24;;;;;;;4.50;3.73;;;1.00;99.90;;;;;;5036261;28;20541;-69
2023/11/28 00:28:52;;;;;;;5.40;3.73;;;1.00;99.90;;;;;;5038912;28;20990;-67
2023/11/28 00:31:20;;;;;;;3.63;3.20;;;0.90;99.90;;;;;;5035776;28;20578;-67
2023/11/28 00:33:48;;;;;;;3.73;2.70;;;0.90;99.90;;;;;;5039568;28;20462;-67
2023/11/28 00:36:16;;;;;;;5.13;3.80;;;0.90;99.90;;;;;;5035400;28;20478;-68
2023/11/28 00:38:46;;;;;;;3.90;3.00;;;0.90;99.90;;;;;;5039735;28;20524;-67
2023/11/28 00:41:14;;;;;;;3.63;3.10;;;0.90;99.90;;;;;;5040189;28;20944;-67
2023/11/28 00:43:43;;;;;;;4.57;3.90;;;0.90;99.90;;;;;;5041902;28;20471;-67
2023/11/28 00:46:13;;;;;;;4.23;3.80;;;0.90;99.90;;;;;;5036342;28;20478;-69
2023/11/28 00:48:42;;;;;;;3.13;2.70;;;1.00;99.90;;;;;;5042494;28;21044;-67
2023/11/28 00:51:10;;;;;;;4.13;2.37;;;0.90;99.90;;;;;;5029623;28;20607;-69
2023/11/28 00:53:40;;;;;;;3.30;2.90;;;0.90;99.90;;;;;;5034544;28;20521;-68
2023/11/28 00:56:18;;;;;;;2.67;2.47;;;0.90;99.90;;;;;;5041686;28;21444;-68
2023/11/28 00:58:48;;;;;;;2.97;2.67;;;0.90;99.90;;;;;;5041738;28;20463;-67
2023/11/28 01:01:17;;;;;;;2.70;2.50;;;0.90;99.90;;;;;;5040961;28;20514;-66
2023/11/28 01:03:45;;;;;;;2.67;2.47;;;0.90;99.90;;;;;;5038750;28;20468;-69
2023/11/28 01:06:14;;;;;;;2.67;2.43;;;0.80;99.90;;;;;;5036721;28;20466;-68
2023/11/28 01:08:42;;;;;;;2.73;2.30;;;0.80;99.90;;;;;;5038620;28;20526;-69
2023/11/28 01:11:11;;;;;;;2.50;2.07;;;0.80;99.90;;;;;;5039928;28;20560;-67
2023/11/28 01:13:39;;;;;;;2.80;1.90;;;0.80;99.90;;;;;;5038086;28;20979;-66
2023/11/28 01:16:11;;;;;;;2.00;1.90;;;0.80;99.90;;;;;;5035192;28;20813;-66
2023/11/28 01:18:39;;;;;;;2.67;2.13;;;0.80;99.90;;;;;;5044325;28;20459;-66
2023/11/28 01:21:08;;;;;;;2.57;2.37;;;0.80;99.90;;;;;;5049227;28;20521;-66
2023/11/28 01:23:36;;;;;;;2.23;2.03;;;0.80;99.90;;;;;;5039861;28;20597;-69
2023/11/28 01:26:04;;;;;;;2.60;2.40;;;0.80;99.90;;;;;;5030960;28;20563;-67
2023/11/28 01:28:34;;;;;;;2.67;2.23;;;0.80;99.90;;;;;;5034493;28;21309;-69
2023/11/28 01:31:02;;;;;;;3.20;2.90;;;0.90;99.90;;;;;;5038965;28;20494;-68
2023/11/28 01:33:30;;;;;;;3.67;2.60;;;0.80;99.90;;;;;;5038686;28;20484;-67
2023/11/28 01:35:58;;;;;;;2.77;2.57;;;0.80;99.90;;;;;;5038933;28;20471;-68
2023/11/28 01:38:26;;;;;;;2.57;2.37;;;0.80;99.90;;;;;;5039508;28;20530;-68
2023/11/28 01:40:54;;;;;;;2.50;2.30;;;0.80;99.90;;;;;;5034127;28;20489;-69
2023/11/28 01:43:26;;;;;;;2.93;2.47;;;0.80;99.90;;;;;;5047482;28;20525;-68
2023/11/28 01:45:56;;;;;;;2.77;2.50;;;0.80;99.90;;;;;;5038015;28;20505;-65
2023/11/28 01:48:24;;;;;;;2.30;2.10;;;0.90;99.90;;;;;;5034223;28;20544;-67
2023/11/28 01:50:53;;;;;;;2.37;2.10;;;0.90;99.90;;;;;;5030367;28;20624;-65
2023/11/28 01:53:22;;;;;;;2.20;2.00;;;0.90;99.90;;;;;;5033765;28;20473;-65
2023/11/28 01:55:51;;;;;;;2.83;2.03;;;0.90;99.90;;;;;;5025954;28;20506;-66
2023/11/28 01:58:20;;;;;;;2.07;1.97;;;0.90;99.90;;;;;;5031307;28;21016;-69
2023/11/28 02:00:48;;;;;;;2.10;1.90;;;0.90;99.90;;;;;;5038079;28;20958;-68
2023/11/28 02:03:20;;;;;;;1.83;1.73;;;0.90;99.90;;;;;;5037261;28;20474;-68
2023/11/28 02:05:49;;;;;;;3.27;1.80;;;0.90;99.90;;;;;;5034408;28;20907;-67
2023/11/28 02:08:18;;;;;;;1.97;1.77;;;0.90;99.90;;;;;;5034990;28;20715;-68
2023/11/28 02:10:46;;;;;;;1.97;1.77;;;0.90;99.90;;;;;;5035010;28;20577;-67
2023/11/28 02:13:14;;;;;;;1.80;1.70;;;0.90;99.90;;;;;;5031221;28;20470;-67
2023/11/28 02:15:44;;;;;;;2.23;1.83;;;0.90;99.90;;;;;;5035246;28;20470;-68
2023/11/28 02:18:14;;;;;;;1.60;1.50;;;0.90;99.90;;;;;;5038023;28;21061;-69
2023/11/28 02:20:43;;;;;;;1.60;1.50;;;0.90;99.90;;;;;;5031789;28;21056;-68
2023/11/28 02:23:11;;;;;;;1.67;1.50;;;0.90;99.90;;;;;;5036305;28;21275;-68
2023/11/28 02:25:45;;;;;;;1.50;1.40;;;0.90;99.90;;;;;;5046813;28;20554;-68
2023/11/28 02:28:18;;;;;;;1.60;1.50;;;0.80;99.90;;;;;;5042512;28;20501;-68
2023/11/28 02:30:47;;;;;;;1.80;1.70;;;0.80;99.90;;;;;;5037038;28;20663;-68
2023/11/28 02:33:16;;;;;;;1.37;1.27;;;0.80;99.90;;;;;;5040848;28;20649;-68
2023/11/28 02:35:44;;;;;;;1.17;1.17;;;0.80;99.90;;;;;;5035091;28;20897;-67
2023/11/28 02:38:12;;;;;;;1.30;1.20;;;0.80;99.90;;;;;;5038168;28;20696;-67
2023/11/28 02:40:41;;;;;;;1.50;1.27;;;0.80;99.90;;;;;;5035673;28;20470;-67
2023/11/28 02:43:09;;;;;;;1.17;1.17;;;0.70;99.90;;;;;;5039620;28;20931;-67
2023/11/28 02:45:39;;;;;;;1.40;1.30;;;0.70;99.90;;;;;;5040573;28;20462;-68
2023/11/28 02:48:07;;;;;;;1.60;1.50;;;0.70;99.90;;;;;;5039147;28;20499;-69
2023/11/28 02:50:37;;;;;;;1.40;1.30;;;0.70;99.90;;;;;;5034766;28;20485;-67
2023/11/28 02:53:05;;;;;;;1.20;1.10;;;0.60;99.90;;;;;;5036093;28;20593;-69
2023/11/28 02:55:33;;;;;;;1.57;1.37;;;0.60;99.90;;;;;;5036688;28;20913;-67
2023/11/28 02:58:01;;;;;;;1.30;1.20;;;0.60;99.90;;;;;;5039385;28;20470;-69
2023/11/28 03:00:29;;;;;;;1.53;1.43;;;0.60;99.90;;;;;;5037958;28;20575;-67
2023/11/28 03:02:59;;;;;;;1.20;1.10;;;0.60;99.90;;;;;;5037558;28;20466;-68
2023/11/28 03:05:27;;;;;;;1.10;1.00;;;0.60;99.90;;;;;;5037071;28;20477;-68
2023/11/28 03:07:55;;;;;;;1.20;1.10;;;0.60;99.90;;;;;;5035424;28;20844;-67
2023/11/28 03:10:23;;;;;;;1.13;1.13;;;0.60;99.90;;;;;;5040180;28;20479;-67
2023/11/28 03:12:51;;;;;;;1.00;1.00;;;0.60;99.90;;;;;;5037378;28;20569;-68
2023/11/28 03:15:19;;;;;;;1.40;1.30;;;0.60;99.90;;;;;;5037857;28;20470;-67
2023/11/28 03:17:47;;;;;;;1.20;1.10;;;0.60;99.90;;;;;;5040980;28;20546;-68
2023/11/28 03:20:19;;;;;;;1.80;1.70;;;0.60;99.90;;;;;;5031260;28;20470;-68
2023/11/28 03:22:47;;;;;;;1.63;1.53;;;0.60;99.90;;;;;;5036040;28;20580;-67
2023/11/28 03:25:16;;;;;;;1.70;1.60;;;0.60;99.90;;;;;;5036935;28;20474;-69
2023/11/28 03:27:43;;;;;;;2.33;2.13;;;0.60;99.90;;;;;;5036965;28;20551;-67
2023/11/28 03:30:12;;;;;;;2.37;2.17;;;0.70;99.90;;;;;;5034728;28;20601;-67
2023/11/28 03:32:40;;;;;;;2.20;2.00;;;0.70;99.90;;;;;;5039486;28;20498;-67
2023/11/28 03:35:08;;;;;;;2.47;2.27;;;0.70;99.90;;;;;;5030381;28;20481;-69
2023/11/28 03:37:38;;;;;;;2.80;2.10;;;0.70;99.90;;;;;;5038380;28;20552;-67
2023/11/28 03:40:08;;;;;;;2.80;2.50;;;0.70;99.90;;;;;;5041673;28;20578;-68
2023/11/28 03:42:36;;;;;;;3.07;2.77;;;0.70;99.90;;;;;;5038633;28;20487;-67
2023/11/28 03:45:05;;;;;;;3.03;2.77;;;0.80;99.90;;;;;;5034357;28;20856;-67
2023/11/28 03:47:34;;;;;;;2.83;2.63;;;0.80;99.90;;;;;;5027377;28;20486;-68
2023/11/28 03:50:03;;;;;;;3.30;3.00;;;0.80;99.90;;;;;;5029025;28;20502;-67
2023/11/28 03:52:31;;;;;;;3.10;2.90;;;0.90;99.90;;;;;;5037922;28;20578;-67
2023/11/28 03:55:00;;;;;;;3.50;3.20;;;0.90;99.90;;;;;;5035690;28;20474;-68
2023/11/28 03:57:28;;;;;;;3.37;3.07;;;1.00;99.90;;;;;;5041084;28;20505;-67
2023/11/28 03:59:56;;;;;;;3.50;3.20;;;1.00;99.90;;;;;;5036003;28;20955;-67
2023/11/28 04:02:24;;;;;;;3.43;3.13;;;1.00;99.90;;;;;;5024132;28;20509;-68
2023/11/28 04:04:52;;;;;;;4.40;3.43;;;1.00;99.90;;;;;;5035544;28;20799;-69
2023/11/28 04:07:20;;;;;;;3.50;3.20;;;1.00;99.90;;;;;;5029433;28;20943;-67
2023/11/28 04:09:48;;;;;;;5.33;3.60;;;1.10;99.90;;;;;;5036901;28;20612;-67
2023/11/28 04:12:18;;;;;;;3.43;3.13;;;1.10;99.90;;;;;;5045795;28;20580;-67
2023/11/28 04:14:46;;;;;;;3.37;3.07;;;1.10;99.90;;;;;;5039044;28;20510;-67
2023/11/28 04:17:13;;;;;;;3.50;3.20;;;1.10;99.90;;;;;;5040659;28;20474;-68
2023/11/28 04:19:41;;;;;;;3.23;3.00;;;1.10;99.90;;;;;;5034383;28;20917;-68
2023/11/28 04:22:10;;;;;;;3.73;3.37;;;1.10;99.90;;;;;;5041174;28;23683;-69
2023/11/28 04:24:38;;;;;;;3.40;3.10;;;1.10;99.90;;;;;;5039915;28;20532;-67
2023/11/28 04:27:06;;;;;;;4.43;3.53;;;1.10;99.90;;;;;;5042581;28;20538;-67
2023/11/28 04:29:35;;;;;;;4.63;3.37;;;1.10;99.90;;;;;;5041660;28;21435;-67
2023/11/28 04:32:04;;;;;;;3.20;2.90;;;1.10;99.90;;;;;;5037181;28;20482;-67
2023/11/28 04:34:32;;;;;;;2.60;2.40;;;1.10;99.90;;;;;;5040258;28;20915;-67
2023/11/28 04:37:00;;;;;;;2.83;2.53;;;1.10;99.90;;;;;;5035023;28;20478;-67
2023/11/28 04:39:28;;;;;;;3.00;2.50;;;1.00;99.90;;;;;;5034636;28;20521;-67
2023/11/28 04:41:56;;;;;;;2.30;2.00;;;1.00;99.90;;;;;;5038344;28;20551;-66
2023/11/28 04:44:24;;;;;;;2.60;2.40;;;1.00;99.90;;;;;;5037949;28;20475;-68
2023/11/28 04:46:54;;;;;;;3.13;2.10;;;0.90;99.90;;;;;;5040331;28;20470;-67
2023/11/28 04:49:23;;;;;;;2.60;2.40;;;0.90;99.90;;;;;;5034036;28;20565;-67
2023/11/28 04:51:51;;;;;;;3.60;2.70;;;0.90;99.90;;;;;;5021700;28;21100;-69
2023/11/28 04:54:20;;;;;;;2.07;1.93;;;0.90;99.90;;;;;;5036353;28;20487;-67
2023/11/28 04:56:48;;;;;;;2.70;2.20;;;0.90;99.90;;;;;;5048793;28;20474;-67
2023/11/28 04:59:16;;;;;;;2.90;2.60;;;0.90;99.90;;;;;;5039350;28;20557;-67
2023/11/28 05:01:45;;;;;;;2.30;2.03;;;0.80;99.90;;;;;;5034845;28;21006;-67
2023/11/28 05:04:15;;;;;;;2.00;1.80;;;0.80;99.90;;;;;;5038574;28;20475;-67
2023/11/28 05:06:43;;;;;;;2.73;2.30;;;0.80;99.90;;;;;;5036560;28;20474;-68
2023/11/28 05:09:14;;;;;;;2.27;2.07;;;0.80;99.90;;;;;;5039773;28;20521;-68
2023/11/28 05:11:45;;;;;;;2.50;2.00;;;0.80;99.90;;;;;;5037572;28;21361;-67
2023/11/28 05:14:13;;;;;;;2.67;2.47;;;0.80;99.90;;;;;;5037498;28;20562;-67
2023/11/28 05:16:41;;;;;;;2.20;2.10;;;0.70;99.90;;;;;;5043836;28;20796;-67
2023/11/28 05:19:22;;;;;;;2.87;2.67;;;0.60;99.90;;;;;;5027317;28;20550;-67
2023/11/28 05:21:51;;;;;;;2.23;2.10;;;0.60;99.90;;;;;;5032454;28;20499;-67
2023/11/28 05:24:19;;;;;;;2.93;2.63;;;0.60;99.90;;;;;;5032693;28;20485;-68
2023/11/28 05:26:47;;;;;;;3.03;2.67;;;0.60;99.90;;;;;;5041671;28;20529;-68
2023/11/28 05:29:15;;;;;;;2.93;2.70;;;0.60;99.90;;;;;;5033661;28;20544;-67
2023/11/28 05:31:43;;;;;;;3.00;2.70;;;0.60;99.90;;;;;;5037206;28;20502;-67
2023/11/28 05:34:11;;;;;;;2.97;2.70;;;0.60;99.90;;;;;;5029267;28;20507;-67
2023/11/28 05:36:41;;;;;;;3.70;2.67;;;0.60;99.90;;;;;;5034732;28;20471;-68
2023/11/28 05:39:09;;;;;;;3.40;3.10;;;0.60;99.90;;;;;;5038098;28;20470;-67
2023/11/28 05:41:37;;;;;;;3.73;3.27;;;0.60;99.90;;;;;;5037079;28;20485;-67
2023/11/28 05:44:06;;;;;;;2.93;2.73;;;0.70;99.90;;;;;;5029310;28;23474;-67
2023/11/28 05:46:35;;;;;;;4.20;3.20;;;0.70;99.90;;;;;;5039910;28;20525;-67
2023/11/28 05:49:03;;;;;;;3.80;3.30;;;0.70;99.90;;;;;;5034192;28;20553;-69
2023/11/28 05:51:31;;;;;;;3.30;3.00;;;0.70;99.90;;;;;;5031405;28;20588;-67
2023/11/28 05:54:01;;;;;;;3.83;3.43;;;0.70;99.90;;;;;;5036744;28;20483;-66
2023/11/28 05:56:29;;;;;;;4.50;3.83;;;0.60;99.90;;;;;;5037816;28;20474;-67
2023/11/28 05:58:57;;;;;;;3.87;3.30;;;0.60;99.90;;;;;;5031131;28;20540;-67
2023/11/28 06:01:27;;;;;;;3.87;3.47;;;0.70;99.90;;;;;;5028715;28;20494;-68
2023/11/28 06:03:55;;;;;;;3.90;3.60;;;0.70;99.90;;;;;;5036373;28;20506;-70
2023/11/28 06:06:23;;;;;;;4.60;3.67;;;0.70;99.90;;;;;;5041954;28;20474;-68
2023/11/28 06:08:51;;;;;;;3.80;3.40;;;0.70;99.90;;;;;;5040301;28;21081;-71
2023/11/28 06:11:20;;;;;;;4.03;3.17;;;0.70;99.90;;;;;;5036570;28;20572;-67
2023/11/28 06:13:49;;;;;;;4.30;3.00;;;0.70;99.90;;;;;;5033147;28;20476;-67
2023/11/28 06:16:17;;;;;;;5.10;3.30;;;0.80;99.90;;;;;;5039095;28;20482;-67
2023/11/28 06:18:45;;;;;;;3.60;3.30;;;0.80;99.90;;;;;;5032503;28;20502;-66
2023/11/28 06:21:13;;;;;;;3.97;3.27;;;0.90;99.90;;;;;;5026445;28;20486;-67
2023/11/28 06:23:41;;;;;;;3.53;3.23;;;0.80;99.90;;;;;;5020663;28;20547;-67
2023/11/28 06:26:11;;;;;;;3.47;3.00;;;0.80;99.90;;;;;;5034571;28;20486;-66
2023/11/28 06:28:40;;;;;;;3.63;3.03;;;0.80;99.90;;;;;;5031290;28;20570;-67
2023/11/28 06:31:09;;;;;;;4.03;3.23;;;0.80;99.90;;;;;;5024614;28;20509;-69
2023/11/28 06:33:37;;;;;;;3.87;3.10;;;0.80;99.90;;;;;;5029714;28;20589;-68
2023/11/28 06:36:07;;;;;;;3.40;3.00;;;0.80;99.90;;;;;;5036734;28;20489;-68
2023/11/28 06:38:35;;;;;;;4.63;3.63;;;0.80;99.90;;;;;;5035978;28;20466;-67
2023/11/28 06:41:03;;;;;;;4.43;3.60;;;0.80;99.90;;;;;;5025547;28;20487;-67
2023/11/28 06:43:31;;;;;;;7.00;3.70;;;0.80;99.90;;;;;;5037364;28;20738;-67
2023/11/28 06:46:00;;;;;;;4.60;3.47;;;0.80;99.90;;;;;;5029036;28;20561;-67
2023/11/28 06:48:28;;;;;;;6.03;3.40;;;0.80;99.90;;;;;;5026661;28;20543;-67
2023/11/28 06:50:56;;;;;;;3.60;3.30;;;0.80;99.90;;;;;;5034006;28;21058;-67
2023/11/28 06:53:24;;;;;;;3.60;3.30;;;0.80;99.90;;;;;;5032872;28;20584;-67
2023/11/28 06:55:52;;;;;;;3.50;3.20;;;0.80;99.90;;;;;;5034364;28;20470;-68
2023/11/28 06:58:21;;;;;;;4.70;3.67;;;0.80;99.90;;;;;;5034498;28;20570;-68
2023/11/28 07:00:49;;;;;;;4.30;3.50;;;0.80;99.90;;;;;;5029688;28;20491;-67
2023/11/28 07:03:22;;;;;;;3.73;3.43;;;0.90;99.90;;;;;;5040210;28;20478;-68
2023/11/28 07:05:51;;;;;;;4.50;3.13;;;0.90;99.90;;;;;;5049561;23;20518;-64
2023/11/28 07:08:19;;;;;;;3.93;3.40;;;0.90;99.90;;;;;;5049288;28;20477;-62
2023/11/28 07:10:47;;;;;;;3.50;3.20;;;0.90;99.90;;;;;;5061695;28;20490;-62
2023/11/28 07:13:15;;;;;;;4.10;3.03;;;0.90;99.90;;;;;;5043461;28;20469;-63
2023/11/28 07:15:43;;;;;;;3.63;3.30;;;0.90;99.90;;;;;;5033048;28;20495;-63
2023/11/28 07:18:15;;;;;;;3.90;3.60;;;0.80;99.90;;;;;;5037711;28;20540;-63
2023/11/28 07:20:45;;;;;;;4.90;3.57;;;0.90;99.90;;;;;;5036756;28;20972;-63
2023/11/28 07:23:13;;;;;;;3.93;3.53;;;0.90;99.90;;;;;;5032610;28;20483;-64
2023/11/28 07:25:41;;;;;;;3.83;3.20;;;0.90;99.90;;;;;;5031196;28;20481;-63
2023/11/28 07:28:10;;;;;;;4.03;3.53;;;0.80;99.90;;;;;;5036645;28;20505;-64
2023/11/28 07:30:38;;;;;;;4.57;3.43;;;0.80;99.90;;;;;;5024788;28;20481;-64
2023/11/28 07:33:06;;;;;;;6.00;3.30;;;0.90;99.90;;;;;;5026850;28;21390;-63
2023/11/28 07:35:35;;;;;;;3.77;3.37;;;0.80;99.90;;;;;;5026866;28;20463;-63
2023/11/28 07:38:04;;;;;;;3.73;3.43;;;0.80;99.90;;;;;;5030677;28;20462;-64
2023/11/28 07:40:33;;;;;;;4.20;3.10;;;0.80;99.90;;;;;;5041297;28;20847;-64
2023/11/28 07:43:01;;;;;;;4.73;4.00;;;0.80;99.90;;;;;;5040000;28;20855;-64
2023/11/28 07:45:30;;;;;;;4.47;3.80;;;0.90;99.90;;;;;;5027055;28;20592;-63
2023/11/28 07:47:58;;;;;;;4.07;3.13;;;0.90;99.90;;;;;;5032625;28;20485;-63
2023/11/28 07:50:27;;;;;;;4.77;3.53;;;0.90;99.90;;;;;;5038663;28;20891;-63
2023/11/28 07:52:55;;;;;;;4.17;3.73;;;0.90;99.90;;;;;;5034416;28;20474;-63
2023/11/28 07:55:24;;;;;;;3.90;3.50;;;0.90;99.90;;;;;;5040120;28;20482;-64
2023/11/28 07:57:52;;;;;;;5.27;3.10;;;0.90;99.90;;;;;;5034749;28;24562;-62
2023/11/28 08:00:22;;;;;;;3.30;3.00;;;0.90;99.90;;;;;;5034679;28;20478;-64
2023/11/28 08:02:50;;;;;;;3.60;3.30;;;0.90;99.90;;;;;;5035938;28;20612;-63
2023/11/28 08:05:18;;;;;;;3.23;2.70;;;1.00;99.90;;;;;;5036493;28;20493;-63
2023/11/28 08:07:46;;;;;;;3.50;2.90;;;1.10;99.90;;;;;;5036117;28;20813;-63
2023/11/28 08:10:14;;;;;;;4.07;3.10;;;1.10;99.90;;;;;;5039686;28;20615;-62
2023/11/28 08:12:44;;;;;;;2.90;2.70;;;1.20;99.90;;;;;;5034784;28;20593;-63
2023/11/28 08:15:12;;;;;;;2.73;2.53;;;1.20;99.90;;;;;;5035938;28;20878;-63
2023/11/28 08:17:41;;;;;;;3.00;2.80;;;1.20;99.90;;;;;;5040854;28;20897;-63
2023/11/28 08:20:10;;;;;;;3.10;2.77;;;1.10;99.90;;;;;;5033615;28;20475;-63
2023/11/28 08:22:39;;;;;;;3.13;2.70;;;1.10;99.90;;;;;;5033243;28;20836;-63
2023/11/28 08:25:07;;;;;;;3.00;2.50;;;1.10;99.90;;;;;;5040650;28;20954;-63
2023/11/28 08:27:36;;;;;;;3.10;2.80;;;1.00;99.90;;;;;;5036093;28;20498;-64
2023/11/28 08:30:07;;;;;;;3.00;2.63;;;1.00;99.90;;;;;;5033793;28;20505;-64
2023/11/28 08:32:35;;;;;;;2.90;2.60;;;1.00;99.90;;;;;;5038138;28;20526;-65
2023/11/28 08:35:04;;;;;;;3.40;2.77;;;1.00;99.90;;;;;;5037342;28;21047;-62
2023/11/28 08:37:32;;;;;;;2.90;2.60;;;1.00;99.90;;;;;;5032017;28;20857;-64
2023/11/28 08:40:03;;;;;;;3.37;3.07;;;0.90;99.90;;;;;;5035121;28;21053;-63
2023/11/28 08:42:31;;;;;;;5.20;2.80;;;1.00;99.90;;;;;;5039701;28;20477;-63
2023/11/28 08:45:00;;;;;;;2.60;2.40;;;1.00;99.90;;;;;;5035176;28;20833;-63
2023/11/28 08:47:31;;;;;;;3.23;2.60;;;1.00;99.90;;;;;;5032934;28;20581;-64
2023/11/28 08:50:01;;;;;;;3.53;3.23;;;1.00;99.90;;;;;;5034103;28;20463;-63
2023/11/28 08:52:30;;;;;;;5.50;3.23;;;1.10;99.90;;;;;;5032606;28;20497;-64
2023/11/28 08:54:59;;;;;;;3.20;2.83;;;1.10;99.90;;;;;;5036715;28;20540;-63
2023/11/28 08:57:33;;;;;;;3.40;2.90;;;1.10;99.90;;;;;;5040632;28;20494;-64
2023/11/28 09:00:02;;;;;;;4.17;2.77;;;1.00;99.90;;;;;;5032014;28;20555;-64
2023/11/28 09:02:32;;;;;;;4.40;3.23;;;1.10;99.90;;;;;;5035191;28;20494;-63
2023/11/28 09:05:00;;;;;;;3.27;2.90;;;1.10;99.90;;;;;;5034282;28;20473;-63
2023/11/28 09:07:28;;;;;;;3.57;3.20;;;1.10;99.90;;;;;;5034641;28;20513;-64
2023/11/28 09:09:56;;;;;;;3.17;2.90;;;1.10;99.90;;;;;;5034335;28;21180;-63
2023/11/28 09:12:24;;;;;;;3.27;2.97;;;1.10;99.90;;;;;;5037302;28;20910;-64
2023/11/28 09:14:52;;;;;;;2.93;2.73;;;1.10;99.90;;;;;;5031507;28;20475;-64
2023/11/28 09:17:27;;;;;;;3.17;2.87;;;1.20;99.90;;;;;;5037439;28;20515;-64
2023/11/28 09:19:56;;;;;;;4.20;3.40;;;1.20;99.90;;;;;;5031260;28;20997;-65
2023/11/28 09:22:24;;;;;;;4.80;3.00;;;1.20;99.90;;;;;;5061668;28;20470;-65
2023/11/28 09:24:53;;;;;;;3.60;3.30;;;1.30;99.90;;;;;;5052096;28;20465;-65
2023/11/28 09:27:21;;;;;;;3.67;3.00;;;1.40;99.90;;;;;;5036608;28;20490;-65
2023/11/28 09:29:49;;;;;;;5.13;3.77;;;1.50;99.90;;;;;;5036526;28;20462;-64
2023/11/28 09:32:21;;;;;;;4.03;3.30;;;1.40;99.90;;;;;;5033272;28;20497;-64
2023/11/28 09:34:50;;;;;;;3.43;3.03;;;1.50;99.90;;;;;;5033170;28;20557;-63
2023/11/28 09:37:19;;;;;;;3.40;3.10;;;1.50;99.90;;;;;;5029652;28;21039;-64
2023/11/28 09:39:47;;;;;;;4.80;3.57;;;1.50;99.90;;;;;;5034676;28;20478;-63
2023/11/28 09:42:16;;;;;;;4.20;3.40;;;1.60;99.90;;;;;;5027600;28;23642;-63
2023/11/28 09:44:47;;;;;;;3.20;2.90;;;1.70;99.90;;;;;;5028846;28;22261;-63
2023/11/28 09:47:17;;;;;;;4.53;3.43;;;1.60;99.90;;;;;;5030894;28;20941;-64
2023/11/28 09:49:49;;;;;;;3.70;3.17;;;1.60;99.90;;;;;;5030184;28;20478;-63
2023/11/28 09:52:21;;;;;;;7.03;3.90;;;1.60;99.90;;;;;;5031407;28;20495;-64
2023/11/28 09:54:52;;;;;;;3.77;3.43;;;1.60;99.90;;;;;;5034802;28;20616;-63
2023/11/28 09:57:21;;;;;;;3.87;3.50;;;1.60;99.90;;;;;;5034682;28;20497;-63
2023/11/28 09:59:51;;;;;;;4.27;3.27;;;1.60;99.90;;;;;;5032431;28;20477;-63
2023/11/28 10:02:19;;;;;;;3.53;3.13;;;1.50;99.90;;;;;;5029497;28;20471;-63
2023/11/28 10:04:48;;;;;;;4.30;3.80;;;1.50;99.90;;;;;;5041058;28;20570;-63
2023/11/28 10:07:18;;;;;;;5.47;4.40;;;1.50;99.90;;;;;;5039013;28;20501;-63
2023/11/28 10:09:48;;;;;;;5.00;4.27;;;1.40;99.90;;;;;;5034323;28;20468;-64
2023/11/28 10:12:17;;;;;;;3.93;3.60;;;1.40;99.90;;;;;;5037337;28;20486;-63
2023/11/28 10:14:45;;;;;;;4.37;3.97;;;1.40;99.90;;;;;;5033606;28;20474;-63
2023/11/28 10:17:16;;;;;;;4.10;3.70;;;1.40;99.90;;;;;;5036120;28;20482;-64
2023/11/28 10:19:45;;;;;;;4.67;3.87;;;1.30;99.90;;;;;;5033197;28;20478;-63
2023/11/28 10:22:14;;;;;;;5.00;3.70;;;1.30;99.90;;;;;;5044413;28;20454;-63
2023/11/28 10:24:42;;;;;;;4.40;3.40;;;1.30;99.90;;;;;;5038291;28;20474;-63
2023/11/28 10:27:12;;;;;;;4.10;3.70;;;1.30;99.90;;;;;;5038420;28;21003;-63
2023/11/28 10:29:40;;;;;;;3.67;3.37;;;1.30;99.90;;;;;;5034597;28;20467;-63
2023/11/28 10:32:08;;;;;;;4.40;3.43;;;1.30;99.90;;;;;;5027549;28;20543;-63
2023/11/28 10:34:37;;;;;;;4.90;3.97;;;1.40;99.90;;;;;;5033612;28;20474;-62
2023/11/28 10:37:05;;;;;;;3.80;3.50;;;1.40;99.90;;;;;;5032190;28;21082;-62
2023/11/28 10:39:34;;;;;;;4.67;3.63;;;1.40;99.90;;;;;;5038802;28;20478;-63
2023/11/28 10:42:07;;;;;;;3.83;3.50;;;1.40;99.90;;;;;;5042126;28;20462;-63
2023/11/28 10:44:37;;;;;;;5.10;3.57;;;1.40;99.90;;;;;;5032641;28;20474;-63
2023/11/28 10:47:06;;;;;;;3.70;3.40;;;1.40;99.90;;;;;;5027431;28;20494;-63
2023/11/28 10:49:34;;;;;;;3.83;3.43;;;1.40;99.90;;;;;;5036192;28;20463;-63
2023/11/28 10:52:02;;;;;;;5.43;3.83;;;1.40;99.90;;;;;;5035823;28;20483;-63
2023/11/28 10:54:37;;;;;;;3.80;3.03;;;1.40;99.90;;;;;;5038744;28;20474;-68
2023/11/28 10:57:10;;;;;;;4.03;3.67;;;1.40;99.90;;;;;;5038173;28;20502;-68
2023/11/28 10:59:42;;;;;;;3.50;3.00;;;1.30;99.90;;;;;;5031666;28;20900;-63
2023/11/28 11:02:15;;;;;;;4.93;3.40;;;1.40;99.90;;;;;;5034301;28;20986;-63
2023/11/28 11:04:46;;;;;;;4.00;2.60;;;1.30;99.90;;;;;;5039151;28;20462;-63
2023/11/28 11:07:14;;;;;;;3.03;2.83;;;1.30;99.90;;;;;;5026096;28;20578;-63
2023/11/28 11:09:44;;;;;;;3.07;2.73;;;1.30;99.90;;;;;;5033169;28;20470;-62
2023/11/28 11:12:13;;;;;;;4.30;3.40;;;1.30;99.90;;;;;;5033680;28;21160;-64
2023/11/28 11:14:49;;;;;;;4.10;3.63;;;1.30;99.90;;;;;;5027389;28;20536;-63
2023/11/28 11:17:26;;;;;;;5.00;3.13;;;1.30;99.90;;;;;;5032449;28;21030;-63
2023/11/28 11:19:56;;;;;;;3.37;2.93;;;1.40;99.90;;;;;;5030610;28;20474;-63
2023/11/28 11:22:27;;;;;;;4.27;3.17;;;1.40;99.90;;;;;;5032654;28;20470;-63
2023/11/28 11:24:55;;;;;;;3.17;2.70;;;1.40;99.90;;;;;;5039283;28;20487;-64
2023/11/28 11:27:23;;;;;;;3.17;2.70;;;1.40;99.90;;;;;;5035870;28;20518;-63
2023/11/28 11:29:52;;;;;;;3.80;2.47;;;1.40;99.90;;;;;;5037200;28;20477;-63
2023/11/28 11:32:22;;;;;;;2.90;2.70;;;1.40;99.90;;;;;;5047190;28;20490;-62
2023/11/28 11:34:51;;;;;;;3.30;2.90;;;1.40;99.90;;;;;;5061136;28;20560;-62
2023/11/28 11:37:21;;;;;;;2.90;2.60;;;1.30;99.90;;;;;;5047961;28;20474;-64
2023/11/28 11:39:51;;;;;;;3.40;3.10;;;1.30;99.90;;;;;;5032734;28;20466;-63
2023/11/28 11:42:20;;;;;;;4.63;2.83;;;1.30;99.90;;;;;;5036555;28;20471;-63
2023/11/28 11:44:51;;;;;;;3.47;3.17;;;1.30;99.90;;;;;;5033834;28;20572;-63
2023/11/28 11:47:23;;;;;;;4.40;2.80;;;1.30;99.90;;;;;;5034571;28;20585;-66
2023/11/28 11:49:52;;;;;;;2.60;2.23;;;1.30;99.90;;;;;;5029553;28;20462;-63
2023/11/28 11:52:24;;;;;;;2.60;2.40;;;1.20;99.90;;;;;;5036577;28;20562;-63
2023/11/28 11:55:02;;;;;;;2.60;2.40;;;1.20;99.90;;;;;;5034234;28;20487;-64
2023/11/28 11:57:31;;;;;;;4.83;2.53;;;1.20;99.90;;;;;;5027644;28;20612;-62
2023/11/28 12:00:00;;;;;;;4.00;2.77;;;1.20;99.90;;;;;;5038883;28;20474;-64
2023/11/28 12:02:38;;;;;;;5.23;2.50;;;1.30;99.90;;;;;;5038008;28;20920;-63
2023/11/28 12:05:08;;;;;;;3.10;2.70;;;1.30;99.90;;;;;;5033786;28;20484;-63
2023/11/28 12:07:37;;;;;;;2.73;2.53;;;1.30;99.90;;;;;;5027227;28;20585;-64
2023/11/28 12:10:09;;;;;;;2.70;2.50;;;1.30;99.90;;;;;;5031754;28;20470;-64
2023/11/28 12:12:39;;;;;;;2.80;2.60;;;1.40;99.90;;;;;;5035892;28;20959;-63
2023/11/28 12:15:08;;;;;;;2.90;2.60;;;1.40;99.90;;;;;;5033597;28;20492;-62
2023/11/28 12:17:39;;;;;;;3.60;2.70;;;1.50;99.90;;;;;;5028349;28;20489;-62
2023/11/28 12:20:08;;;;;;;2.93;2.63;;;1.60;99.90;;;;;;5035757;28;20475;-63
2023/11/28 12:22:37;;;;;;;3.40;2.70;;;1.60;99.90;;;;;;5034448;28;20609;-63
2023/11/28 12:25:06;;;;;;;3.30;2.90;;;1.60;99.90;;;;;;5027187;28;20469;-63
2023/11/28 12:27:34;;;;;;;3.20;2.90;;;1.60;99.90;;;;;;5025307;28;20572;-63
2023/11/28 12:30:02;;;;;;;2.73;2.50;;;1.50;99.90;;;;;;5037760;28;20552;-63
2023/11/28 12:32:30;;;;;;;3.97;3.00;;;1.50;99.90;;;;;;5034490;28;20543;-64
2023/11/28 12:34:59;;;;;;;5.90;3.13;;;1.50;99.90;;;;;;5034553;28;20494;-64
2023/11/28 12:37:30;;;;;;;5.03;4.40;;;1.50;99.90;;;;;;5033839;28;20495;-64
2023/11/28 12:39:59;;;;;;;4.27;2.60;;;1.40;99.90;;;;;;5034227;28;20964;-63
2023/11/28 12:42:27;;;;;;;3.20;2.97;;;1.40;99.90;;;;;;5028785;28;20554;-63
2023/11/28 12:44:57;;;;;;;2.73;2.53;;;1.30;99.90;;;;;;5038383;28;20550;-64
2023/11/28 12:47:25;;;;;;;2.90;2.60;;;1.30;99.90;;;;;;5039905;28;20493;-64
2023/11/28 12:49:54;;;;;;;2.70;2.50;;;1.20;99.90;;;;;;5041183;28;20485;-63
2023/11/28 12:52:26;;;;;;;2.83;2.50;;;1.20;99.90;;;;;;5037849;28;20478;-64
2023/11/28 12:54:55;;;;;;;3.20;2.90;;;1.10;99.90;;;;;;5035155;28;20490;-62
2023/11/28 12:57:24;;;;;;;2.87;2.67;;;1.10;99.90;;;;;;5035878;28;21792;-62
2023/11/28 12:59:52;;;;;;;4.97;3.40;;;1.10;99.90;;;;;;5038806;28;20470;-63
2023/11/28 13:02:21;;;;;;;4.40;3.47;;;1.10;99.90;;;;;;5029722;28;20471;-63
2023/11/28 13:04:50;;;;;;;3.30;2.80;;;1.10;99.90;;;;;;5039259;28;20469;-63
2023/11/28 13:07:18;;;;;;;3.00;2.70;;;1.10;99.90;;;;;;5040020;28;20490;-64